createdAt,value
2023-05-13T00:00:35.195Z,16.69
2023-05-13T00:03:03.693Z,16.67
2023-05-13T00:05:32.001Z,16.66
2023-05-13T00:08:02.116Z,16.61
2023-05-13T00:10:30.529Z,16.58
2023-05-13T00:12:58.860Z,16.63
2023-05-13T00:15:28.194Z,16.57
2023-05-13T00:17:57.334Z,16.54
2023-05-13T00:20:25.647Z,16.52
2023-05-13T00:22:53.949Z,16.47
2023-05-13T00:25:22.430Z,16.46
2023-05-13T00:27:51.231Z,16.44
2023-05-13T00:30:20.114Z,16.41
2023-05-13T00:32:48.704Z,16.34
2023-05-13T00:35:17.029Z,16.29
2023-05-13T00:37:46.942Z,16.20
2023-05-13T00:40:23.233Z,16.20
2023-05-13T00:42:52.276Z,16.20
2023-05-13T00:45:21.521Z,16.15
2023-05-13T00:47:50.192Z,16.12
2023-05-13T00:50:18.518Z,16.07
2023-05-13T00:52:48.706Z,16.05
2023-05-13T00:55:17.087Z,16.08
2023-05-13T00:57:45.366Z,16.10
2023-05-13T01:00:14.202Z,16.12
2023-05-13T01:03:14.538Z,16.15
2023-05-13T01:06:11.095Z,16.20
2023-05-13T01:09:24.135Z,16.24
2023-05-13T01:11:54.418Z,16.30
2023-05-13T01:14:36.028Z,16.31
2023-05-13T01:17:19.068Z,16.31
2023-05-13T01:19:54.621Z,16.33
2023-05-13T01:22:23.105Z,16.37
2023-05-13T01:24:51.569Z,16.41
2023-05-13T01:27:20.909Z,16.41
2023-05-13T01:29:50.573Z,16.43
2023-05-13T01:32:25.009Z,16.43
2023-05-13T01:34:54.036Z,16.44
2023-05-13T01:37:23.216Z,16.40
2023-05-13T01:39:52.139Z,16.41
2023-05-13T01:42:20.835Z,16.36
2023-05-13T01:44:49.110Z,16.41
2023-05-13T01:47:17.377Z,16.40
2023-05-13T01:49:45.617Z,16.37
2023-05-13T01:52:13.456Z,16.37
2023-05-13T01:54:41.799Z,16.35
2023-05-13T01:57:14.084Z,16.32
2023-05-13T01:59:42.717Z,16.29
2023-05-13T02:02:11.338Z,16.30
2023-05-13T02:04:39.696Z,16.29
2023-05-13T02:07:08.673Z,16.27
2023-05-13T02:09:37.181Z,16.24
2023-05-13T02:12:08.132Z,16.21
2023-05-13T02:14:37.630Z,16.20
2023-05-13T02:17:06.148Z,16.13
2023-05-13T02:19:34.376Z,16.13
2023-05-13T02:22:02.621Z,16.08
2023-05-13T02:24:31.102Z,16.02
2023-05-13T02:27:00.442Z,15.95
2023-05-13T02:29:28.654Z,15.93
2023-05-13T02:31:57.377Z,15.89
2023-05-13T02:34:25.761Z,15.83
2023-05-13T02:36:55.233Z,15.80
2023-05-13T02:39:23.772Z,15.74
2023-05-13T02:41:53.639Z,15.64
2023-05-13T02:44:21.860Z,15.64
2023-05-13T02:46:51.339Z,15.59
2023-05-13T02:49:20.084Z,15.57
2023-05-13T02:51:48.366Z,15.52
2023-05-13T02:54:18.599Z,15.43
2023-05-13T02:56:46.822Z,15.37
2023-05-13T02:59:15.080Z,15.34
2023-05-13T03:01:43.652Z,15.28
2023-05-13T03:04:12.001Z,15.24
2023-05-13T03:06:40.292Z,15.18
2023-05-13T03:09:08.779Z,15.14
2023-05-13T03:11:37.066Z,15.09
2023-05-13T03:14:07.105Z,15.04
2023-05-13T03:16:35.509Z,15.01
2023-05-13T03:19:04.059Z,14.93
2023-05-13T03:21:32.857Z,14.93
2023-05-13T03:24:01.208Z,14.88
2023-05-13T03:26:29.494Z,14.84
2023-05-13T03:28:58.564Z,14.80
2023-05-13T03:31:27.376Z,14.78
2023-05-13T03:33:56.094Z,14.75
2023-05-13T03:36:24.668Z,14.71
2023-05-13T03:38:52.978Z,14.66
2023-05-13T03:41:21.483Z,14.64
2023-05-13T03:43:50.583Z,14.63
2023-05-13T03:46:19.036Z,14.62
2023-05-13T03:48:47.717Z,14.58
2023-05-13T03:51:16.260Z,14.53
2023-05-13T03:53:44.797Z,14.51
2023-05-13T03:56:13.799Z,14.48
2023-05-13T03:58:42.458Z,14.45
2023-05-13T04:01:10.952Z,14.44
2023-05-13T04:03:39.438Z,14.42
2023-05-13T04:06:07.890Z,14.39
2023-05-13T04:08:36.096Z,14.43
2023-05-13T04:11:04.367Z,14.47
2023-05-13T04:13:36.010Z,14.46
2023-05-13T04:16:04.541Z,14.49
2023-05-13T04:18:34.377Z,14.47
2023-05-13T04:21:08.228Z,14.48
2023-05-13T04:23:36.781Z,14.46
2023-05-13T04:26:04.963Z,14.50
2023-05-13T04:28:34.592Z,14.54
2023-05-13T04:31:03.715Z,14.54
2023-05-13T04:33:34.096Z,14.69
2023-05-13T04:36:02.584Z,14.70
2023-05-13T04:38:32.111Z,14.80
2023-05-13T04:41:00.849Z,14.89
2023-05-13T04:43:35.865Z,14.95
2023-05-13T04:46:04.436Z,15.05
2023-05-13T04:48:32.781Z,15.17
2023-05-13T04:51:01.814Z,15.26
2023-05-13T04:53:31.316Z,15.39
2023-05-13T04:56:03.026Z,15.51
2023-05-13T04:58:32.116Z,15.59
2023-05-13T05:01:00.799Z,15.70
2023-05-13T05:03:29.302Z,15.80
2023-05-13T05:05:57.913Z,15.93
2023-05-13T05:08:28.915Z,16.05
2023-05-13T05:10:59.845Z,16.16
2023-05-13T05:13:28.396Z,16.25
2023-05-13T05:15:56.732Z,16.40
2023-05-13T05:18:25.155Z,16.44
2023-05-13T05:20:53.541Z,16.53
2023-05-13T05:23:23.180Z,16.62
2023-05-13T05:26:04.093Z,16.69
2023-05-13T05:28:40.120Z,16.71
2023-05-13T05:31:09.680Z,16.76
2023-05-13T05:33:38.820Z,16.82
2023-05-13T05:36:08.437Z,16.92
2023-05-13T05:38:37.375Z,16.97
2023-05-13T05:41:06.713Z,16.97
2023-05-13T05:43:35.790Z,17.04
2023-05-13T05:46:05.086Z,17.11
2023-05-13T05:48:34.815Z,17.15
2023-05-13T05:51:03.742Z,17.17
2023-05-13T05:53:37.867Z,17.10
2023-05-13T05:56:07.855Z,17.30
2023-05-13T05:58:36.239Z,17.34
2023-05-13T06:01:05.621Z,17.31
2023-05-13T06:03:34.582Z,17.42
2023-05-13T06:06:02.983Z,17.47
2023-05-13T06:08:31.583Z,17.53
2023-05-13T06:11:00.203Z,17.61
2023-05-13T06:13:28.557Z,17.62
2023-05-13T06:15:57.301Z,17.64
2023-05-13T06:18:26.917Z,17.70
2023-05-13T06:20:56.080Z,17.74
2023-05-13T06:23:24.029Z,17.76
2023-05-13T06:25:53.348Z,17.76
2023-05-13T06:28:21.753Z,17.79
2023-05-13T06:30:53.553Z,17.84
2023-05-13T06:33:22.169Z,17.88
2023-05-13T06:35:50.244Z,17.89
2023-05-13T06:38:20.903Z,18.00
2023-05-13T06:40:50.634Z,17.97
2023-05-13T06:43:20.012Z,18.00
2023-05-13T06:45:50.670Z,18.06
2023-05-13T06:48:18.960Z,18.17
2023-05-13T06:50:47.468Z,18.21
2023-05-13T06:53:16.166Z,18.26
2023-05-13T06:55:44.718Z,18.23
2023-05-13T06:58:12.950Z,18.32
2023-05-13T07:00:41.423Z,18.38
2023-05-13T07:03:12.594Z,18.33
2023-05-13T07:05:41.069Z,18.51
2023-05-13T07:08:08.932Z,18.59
2023-05-13T07:10:37.342Z,18.67
2023-05-13T07:13:05.456Z,18.68
2023-05-13T07:15:33.806Z,18.76
2023-05-13T07:18:02.061Z,18.81
2023-05-13T07:20:30.470Z,18.85
2023-05-13T07:22:58.622Z,18.92
2023-05-13T07:25:26.641Z,18.98
2023-05-13T07:27:54.971Z,18.98
2023-05-13T07:30:23.375Z,19.05
2023-05-13T07:32:53.876Z,19.14
2023-05-13T07:35:22.858Z,19.16
2023-05-13T07:37:51.324Z,19.22
2023-05-13T07:40:20.951Z,19.29
2023-05-13T07:42:50.352Z,19.36
2023-05-13T07:45:18.660Z,19.37
2023-05-13T07:48:07.479Z,19.47
2023-05-13T07:50:35.636Z,19.49
2023-05-13T07:53:04.304Z,19.54
2023-05-13T07:55:32.578Z,19.67
2023-05-13T07:58:01.889Z,19.72
2023-05-13T08:00:30.150Z,19.77
2023-05-13T08:03:01.229Z,19.87
2023-05-13T08:05:29.899Z,19.90
2023-05-13T08:08:04.221Z,19.98
2023-05-13T08:10:32.552Z,20.07
2023-05-13T08:13:02.249Z,20.08
2023-05-13T08:15:30.563Z,20.16
2023-05-13T08:18:00.654Z,20.15
2023-05-13T08:20:30.126Z,20.28
2023-05-13T08:22:58.707Z,20.35
2023-05-13T08:25:27.074Z,20.42
2023-05-13T08:27:55.580Z,20.55
2023-05-13T08:30:23.445Z,20.63
2023-05-13T08:32:52.068Z,20.70
2023-05-13T08:35:23.119Z,20.84
2023-05-13T08:37:54.046Z,20.90
2023-05-13T08:40:22.592Z,21.03
2023-05-13T08:42:51.886Z,21.08
2023-05-13T08:45:22.993Z,21.15
2023-05-13T08:47:57.039Z,21.28
2023-05-13T08:50:26.094Z,21.43
2023-05-13T08:52:55.004Z,21.47
2023-05-13T08:55:24.389Z,21.52
2023-05-13T08:57:53.093Z,21.52
2023-05-13T09:00:21.941Z,21.72
2023-05-13T09:02:51.236Z,21.75
2023-05-13T09:05:20.196Z,21.83
2023-05-13T09:07:48.568Z,21.97
2023-05-13T09:10:19.108Z,22.10
2023-05-13T09:12:54.380Z,22.23
2023-05-13T10:14:07.505Z,31.59
2023-05-13T10:16:36.278Z,31.70
2023-05-13T10:19:05.226Z,32.08
2023-05-13T10:21:36.842Z,32.40
2023-05-13T10:24:06.865Z,32.25
2023-05-13T10:26:35.527Z,32.55
2023-05-13T10:29:10.442Z,33.11
2023-05-13T10:31:39.278Z,33.43
2023-05-13T10:34:07.648Z,33.62
2023-05-13T10:37:03.892Z,33.86
2023-05-13T10:40:31.652Z,34.35
2023-05-13T10:43:26.158Z,34.69
2023-05-13T10:46:08.815Z,34.49
2023-05-13T10:48:55.916Z,35.14
2023-05-13T10:51:27.525Z,35.39
2023-05-13T10:53:58.962Z,35.76
2023-05-13T10:56:28.929Z,35.96
2023-05-13T10:59:03.552Z,36.31
2023-05-13T11:01:44.253Z,36.39
2023-05-13T11:04:19.717Z,36.58
2023-05-13T11:06:50.775Z,36.99
2023-05-13T11:09:31.633Z,36.96
2023-05-13T11:12:00.964Z,37.35
2023-05-13T11:14:33.425Z,37.36
2023-05-13T11:17:04.478Z,37.80
2023-05-13T11:19:51.188Z,38.09
2023-05-13T11:22:26.386Z,38.14
2023-05-13T11:25:10.911Z,38.43
2023-05-13T11:27:42.108Z,38.61
2023-05-13T11:30:26.794Z,38.96
2023-05-13T11:32:59.717Z,39.20
2023-05-13T11:35:31.478Z,39.44
2023-05-13T11:38:02.732Z,39.56
2023-05-13T11:40:34.448Z,40.01
2023-05-13T11:43:05.970Z,40.11
2023-05-13T11:45:39.723Z,40.28
2023-05-13T11:48:24.550Z,40.70
2023-05-13T11:50:53.169Z,40.85
2023-05-13T11:53:22.526Z,40.76
2023-05-13T11:55:51.258Z,40.99
2023-05-13T11:58:21.750Z,41.18
2023-05-13T12:00:50.461Z,41.61
2023-05-13T12:03:19.332Z,41.54
2023-05-13T12:05:49.172Z,41.66
2023-05-13T12:08:17.495Z,41.71
2023-05-13T12:10:46.337Z,41.38
2023-05-13T12:13:14.705Z,40.25
2023-05-13T12:15:43.219Z,38.61
2023-05-13T12:18:12.041Z,38.16
2023-05-13T12:20:40.452Z,39.16
2023-05-13T12:23:11.918Z,40.61
2023-05-13T12:25:48.371Z,41.51
2023-05-13T12:28:23.622Z,42.00
2023-05-13T12:31:01.596Z,42.45
2023-05-13T12:33:32.262Z,42.48
2023-05-13T12:36:27.735Z,42.45
2023-05-13T12:39:10.973Z,42.91
2023-05-13T12:41:42.535Z,42.27
2023-05-13T12:44:15.510Z,42.25
2023-05-13T12:46:58.368Z,42.57
2023-05-13T12:49:26.738Z,42.90
2023-05-13T12:51:56.663Z,43.22
2023-05-13T12:54:25.024Z,43.46
2023-05-13T12:56:53.432Z,43.89
2023-05-13T12:59:21.813Z,43.86
2023-05-13T13:01:51.231Z,44.44
2023-05-13T13:04:20.019Z,44.40
2023-05-13T13:06:48.471Z,44.83
2023-05-13T13:09:16.689Z,44.72
2023-05-13T13:11:44.883Z,44.86
2023-05-13T13:14:13.098Z,42.93
2023-05-13T13:16:41.521Z,40.84
2023-05-13T13:19:10.380Z,39.91
2023-05-13T13:21:38.783Z,40.57
2023-05-13T13:24:07.278Z,42.13
2023-05-13T13:26:38.380Z,42.78
2023-05-13T13:29:06.672Z,43.09
2023-05-13T13:31:35.000Z,42.07
2023-05-13T13:34:05.067Z,40.30
2023-05-13T13:36:33.354Z,41.17
2023-05-13T13:39:01.624Z,41.18
2023-05-13T13:41:29.987Z,41.36
2023-05-13T13:43:58.423Z,40.98
2023-05-13T13:46:26.872Z,39.44
2023-05-13T13:48:55.932Z,38.69
2023-05-13T13:51:24.153Z,38.15
2023-05-13T13:53:52.449Z,38.16
2023-05-13T13:56:21.070Z,40.03
2023-05-13T13:58:49.283Z,39.52
2023-05-13T14:01:19.578Z,38.15
2023-05-13T14:03:50.813Z,36.73
2023-05-13T14:06:19.843Z,37.07
2023-05-13T14:08:50.957Z,38.00
2023-05-13T14:11:19.261Z,38.06
2023-05-13T14:13:53.290Z,37.57
2023-05-13T14:16:21.602Z,39.05
2023-05-13T14:18:49.950Z,40.25
2023-05-13T14:21:18.299Z,40.65
2023-05-13T14:23:46.584Z,41.57
2023-05-13T14:26:17.604Z,41.75
2023-05-13T14:28:45.910Z,42.04
2023-05-13T14:31:14.340Z,42.76
2023-05-13T14:33:42.756Z,42.92
2023-05-13T14:36:15.950Z,41.49
2023-05-13T14:38:44.533Z,39.88
2023-05-13T14:41:19.591Z,37.99
2023-05-13T14:43:48.036Z,36.60
2023-05-13T14:46:16.449Z,34.82
2023-05-13T14:48:44.804Z,34.30
2023-05-13T14:51:13.068Z,33.50
2023-05-13T14:53:42.499Z,32.81
2023-05-13T14:56:11.143Z,32.62
2023-05-13T14:58:39.497Z,32.25
2023-05-13T15:01:07.799Z,31.88
2023-05-13T15:03:36.180Z,31.64
2023-05-13T15:06:05.095Z,30.90
2023-05-13T15:08:33.447Z,31.13
2023-05-13T15:11:04.667Z,32.19
2023-05-13T15:13:35.262Z,33.14
2023-05-13T15:16:04.405Z,33.99
2023-05-13T15:18:32.959Z,33.97
2023-05-13T15:21:01.472Z,33.39
2023-05-13T15:23:29.740Z,34.45
2023-05-13T15:25:58.210Z,33.08
2023-05-13T15:28:26.536Z,33.59
2023-05-13T15:30:54.985Z,33.72
2023-05-13T15:33:23.354Z,32.73
2023-05-13T15:35:52.489Z,31.90
2023-05-13T15:38:21.576Z,33.08
2023-05-13T15:40:50.402Z,34.42
2023-05-13T15:43:18.662Z,35.31
2023-05-13T15:45:46.961Z,36.40
2023-05-13T15:48:16.744Z,37.09
2023-05-13T15:50:45.166Z,37.58
2023-05-13T15:53:15.835Z,37.85
2023-05-13T15:55:44.152Z,38.24
2023-05-13T15:58:12.425Z,38.98
2023-05-13T16:00:40.726Z,39.40
2023-05-13T16:03:09.113Z,39.45
2023-05-13T16:05:38.858Z,38.16
2023-05-13T16:08:07.258Z,36.94
2023-05-13T16:10:35.796Z,36.25
2023-05-13T16:13:04.453Z,34.79
2023-05-13T16:15:32.865Z,33.66
2023-05-13T16:18:02.070Z,32.92
2023-05-13T16:20:30.638Z,32.40
2023-05-13T16:22:59.307Z,31.50
2023-05-13T16:25:27.562Z,31.32
2023-05-13T16:27:56.605Z,30.85
2023-05-13T16:30:25.051Z,30.57
2023-05-13T16:32:54.469Z,30.24
2023-05-13T16:35:24.024Z,30.30
2023-05-13T16:37:52.378Z,30.15
2023-05-13T16:40:21.951Z,29.40
2023-05-13T16:42:50.519Z,29.81
2023-05-13T16:45:18.801Z,29.74
2023-05-13T16:47:47.111Z,29.72
2023-05-13T16:50:15.868Z,30.09
2023-05-13T16:52:44.358Z,30.42
2023-05-13T16:55:13.130Z,30.56
2023-05-13T16:57:41.439Z,30.82
2023-05-13T17:00:10.515Z,30.43
2023-05-13T17:02:38.936Z,30.69
2023-05-13T17:05:08.004Z,31.24
2023-05-13T17:07:36.466Z,30.95
2023-05-13T17:10:05.189Z,30.68
2023-05-13T17:12:33.555Z,30.96
2023-05-13T17:15:01.829Z,31.06
2023-05-13T17:17:30.506Z,31.08
2023-05-13T17:19:58.867Z,31.42
2023-05-13T17:22:27.146Z,31.64
2023-05-13T17:24:56.056Z,31.66
2023-05-13T17:27:24.380Z,31.42
2023-05-13T17:29:53.013Z,31.15
2023-05-13T17:32:22.239Z,30.88
2023-05-13T17:34:50.539Z,30.66
2023-05-13T17:37:18.903Z,30.31
2023-05-13T17:39:50.063Z,30.48
2023-05-13T17:42:18.387Z,30.17
2023-05-13T17:44:46.675Z,30.80
2023-05-13T17:47:15.265Z,30.98
2023-05-13T17:49:43.531Z,30.88
2023-05-13T17:52:11.829Z,31.09
2023-05-13T17:54:40.180Z,31.10
2023-05-13T17:57:10.944Z,31.19
2023-05-13T17:59:39.563Z,31.20
2023-05-13T18:02:07.890Z,30.41
2023-05-13T18:04:36.298Z,30.36
2023-05-13T18:07:04.665Z,30.85
2023-05-13T18:09:33.069Z,30.91
2023-05-13T18:12:01.409Z,30.85
2023-05-13T18:14:32.319Z,30.71
2023-05-13T18:17:01.236Z,30.49
2023-05-13T18:19:29.425Z,30.18
2023-05-13T18:21:57.721Z,29.95
2023-05-13T18:24:26.176Z,29.88
2023-05-13T18:26:54.520Z,29.78
2023-05-13T18:29:23.158Z,29.65
2023-05-13T18:31:51.406Z,28.08
2023-05-13T18:34:19.646Z,28.02
2023-05-13T18:36:48.103Z,27.88
2023-05-13T18:39:16.431Z,27.76
2023-05-13T18:41:44.734Z,27.80
2023-05-13T18:44:13.004Z,27.47
2023-05-13T18:46:41.274Z,27.39
2023-05-13T18:49:09.507Z,27.14
2023-05-13T18:51:37.960Z,26.62
2023-05-13T18:54:06.336Z,26.71
2023-05-13T18:56:35.035Z,25.86
2023-05-13T18:59:03.649Z,26.05
2023-05-13T19:01:32.047Z,25.82
2023-05-13T19:04:00.590Z,25.71
2023-05-13T19:06:29.092Z,25.50
2023-05-13T19:08:57.392Z,25.26
2023-05-13T19:11:26.054Z,25.08
2023-05-13T19:13:54.353Z,24.86
2023-05-13T19:16:22.768Z,24.66
2023-05-13T19:18:51.105Z,24.46
2023-05-13T19:21:19.624Z,24.26
2023-05-13T19:23:47.876Z,24.04
2023-05-13T19:26:16.173Z,23.86
2023-05-13T19:28:45.386Z,23.66
2023-05-13T19:31:13.810Z,23.41
2023-05-13T19:33:45.378Z,23.28
2023-05-13T19:36:14.494Z,23.08
2023-05-13T19:38:42.796Z,22.90
2023-05-13T19:41:11.048Z,22.74
2023-05-13T19:43:39.272Z,22.59
2023-05-13T19:46:07.592Z,22.37
2023-05-13T19:48:35.888Z,22.19
2023-05-13T19:51:04.284Z,22.05
2023-05-13T19:53:32.642Z,21.87
2023-05-13T19:56:01.519Z,21.71
2023-05-13T19:58:29.817Z,21.61
2023-05-13T20:00:58.282Z,21.45
2023-05-13T20:03:26.752Z,21.30
2023-05-13T20:05:55.055Z,21.13
2023-05-13T20:08:23.582Z,21.01
2023-05-13T20:10:51.929Z,20.88
2023-05-13T20:13:20.204Z,20.74
2023-05-13T20:15:48.506Z,20.59
2023-05-13T20:18:17.081Z,20.43
2023-05-13T20:20:46.894Z,20.29
2023-05-13T20:23:15.260Z,20.16
2023-05-13T20:25:43.517Z,20.07
2023-05-13T20:28:11.821Z,19.89
2023-05-13T20:30:42.936Z,19.79
2023-05-13T20:33:12.544Z,19.71
2023-05-13T20:35:42.818Z,19.63
2023-05-13T20:38:11.466Z,19.50
2023-05-13T20:40:42.997Z,19.41
2023-05-13T20:43:11.216Z,19.25
2023-05-13T20:45:39.810Z,19.15
2023-05-13T20:48:09.162Z,19.08
2023-05-13T20:53:05.651Z,18.86
2023-05-13T20:55:33.913Z,18.74
2023-05-13T20:58:04.704Z,18.67
2023-05-13T21:00:33.174Z,18.58
2023-05-13T21:03:03.941Z,18.54
2023-05-13T21:05:32.326Z,18.43
2023-05-13T21:08:01.104Z,18.30
2023-05-13T21:10:29.396Z,18.23
2023-05-13T21:13:01.688Z,18.17
2023-05-13T21:15:29.951Z,18.05
2023-05-13T21:17:58.408Z,17.98
2023-05-13T21:20:26.767Z,17.86
2023-05-13T21:22:55.092Z,17.78
2023-05-13T21:25:24.514Z,17.70
2023-05-13T21:27:52.859Z,17.61
2023-05-13T21:30:21.568Z,17.52
2023-05-13T21:32:49.911Z,17.43
2023-05-13T21:35:19.238Z,17.37
2023-05-13T21:37:48.772Z,17.33
2023-05-13T21:40:18.869Z,17.23
2023-05-13T21:42:47.168Z,17.21
2023-05-13T21:45:15.441Z,17.13
2023-05-13T21:47:43.903Z,17.07
2023-05-13T21:50:12.360Z,17.00
2023-05-13T21:52:40.641Z,16.93
2023-05-13T21:55:09.669Z,16.88
2023-05-13T21:57:37.990Z,16.83
2023-05-13T22:00:14.912Z,16.69
2023-05-13T22:02:48.589Z,16.61
2023-05-13T22:05:17.211Z,16.61
2023-05-13T22:07:46.298Z,16.56
2023-05-13T22:10:14.642Z,16.55
2023-05-13T22:12:43.088Z,16.45
2023-05-13T22:15:12.523Z,16.42
2023-05-13T22:17:41.079Z,16.33
2023-05-13T22:20:10.123Z,16.29
2023-05-13T22:22:38.407Z,16.22
2023-05-13T22:25:07.069Z,16.19
2023-05-13T22:27:35.536Z,16.13
2023-05-13T22:30:04.201Z,16.08
2023-05-13T22:32:34.362Z,16.10
2023-05-13T22:35:03.102Z,16.06
2023-05-13T22:37:31.277Z,16.04
2023-05-13T22:39:59.551Z,15.95
2023-05-13T22:42:27.868Z,15.87
2023-05-13T22:44:56.094Z,15.80
2023-05-13T22:47:24.436Z,15.75
2023-05-13T22:49:52.743Z,15.72
2023-05-13T22:52:21.052Z,15.73
2023-05-13T22:54:49.443Z,15.63
2023-05-13T22:57:17.778Z,15.69
2023-05-13T22:59:46.114Z,15.65
2023-05-13T23:02:14.480Z,15.62
2023-05-13T23:04:42.668Z,15.59
2023-05-13T23:07:10.899Z,15.57
2023-05-13T23:09:39.186Z,15.51
2023-05-13T23:12:08.090Z,15.45
2023-05-13T23:14:36.421Z,15.46
2023-05-13T23:17:04.757Z,15.44
2023-05-13T23:19:33.020Z,15.41
2023-05-13T23:22:01.384Z,15.39
2023-05-13T23:24:29.656Z,15.36
2023-05-13T23:26:57.883Z,15.35
2023-05-13T23:29:27.658Z,15.28
2023-05-13T23:31:56.116Z,15.25
2023-05-13T23:34:24.435Z,15.21
2023-05-13T23:36:52.661Z,15.20
2023-05-13T23:39:20.905Z,15.18
2023-05-13T23:41:49.352Z,15.14
2023-05-13T23:44:17.623Z,15.11
2023-05-13T23:46:46.177Z,15.10
2023-05-13T23:49:15.475Z,15.06
2023-05-13T23:51:43.797Z,15.05
2023-05-13T23:54:12.112Z,15.00
2023-05-13T23:56:40.375Z,14.97
2023-05-13T23:59:08.668Z,14.96
